createdAt,value
2023-05-21T00:01:10.764Z,7.05
2023-05-21T00:03:42.150Z,6.53
2023-05-21T00:06:09.576Z,7.05
2023-05-21T00:08:37.164Z,6.95
2023-05-21T00:11:04.628Z,6.05
2023-05-21T00:13:31.953Z,6.60
2023-05-21T00:15:59.152Z,8.20
2023-05-21T00:18:26.994Z,7.75
2023-05-21T00:20:54.539Z,7.90
2023-05-21T00:23:21.854Z,7.53
2023-05-21T00:25:50.548Z,6.70
2023-05-21T00:28:18.012Z,7.85
2023-05-21T00:30:45.870Z,8.60
2023-05-21T00:33:15.774Z,8.60
2023-05-21T00:35:43.032Z,8.90
2023-05-21T00:38:10.437Z,8.60
2023-05-21T00:40:41.271Z,9.32
2023-05-21T00:43:10.818Z,9.10
2023-05-21T00:45:38.663Z,8.60
2023-05-21T00:48:06.739Z,8.38
2023-05-21T00:50:34.450Z,7.07
2023-05-21T00:53:01.935Z,9.57
2023-05-21T00:55:29.233Z,8.88
2023-05-21T00:57:56.667Z,9.18
2023-05-21T01:00:26.550Z,7.63
2023-05-21T01:02:54.088Z,6.22
2023-05-21T01:05:22.368Z,9.55
2023-05-21T01:07:49.679Z,9.50
2023-05-21T01:10:17.043Z,8.30
2023-05-21T01:12:45.738Z,7.82
2023-05-21T01:15:13.298Z,6.50
2023-05-21T01:17:41.712Z,9.50
2023-05-21T01:20:10.608Z,9.57
2023-05-21T01:22:48.342Z,8.05
2023-05-21T01:25:15.579Z,9.27
2023-05-21T01:27:42.866Z,8.20
2023-05-21T01:30:10.863Z,9.02
2023-05-21T01:33:03.549Z,9.05
2023-05-21T01:35:33.218Z,8.52
2023-05-21T01:38:15.034Z,8.70
2023-05-21T01:40:47.266Z,9.52
2023-05-21T01:43:15.824Z,9.60
2023-05-21T01:45:45.435Z,8.70
2023-05-21T01:48:13.523Z,9.07
2023-05-21T01:50:42.042Z,9.15
2023-05-21T01:53:09.686Z,7.15
2023-05-21T01:55:39.750Z,7.47
2023-05-21T01:58:07.745Z,7.35
2023-05-21T02:00:35.223Z,8.43
2023-05-21T02:03:02.591Z,9.45
2023-05-21T02:05:30.094Z,5.50
2023-05-21T02:08:00.052Z,9.68
2023-05-21T02:10:27.796Z,8.23
2023-05-21T02:12:55.002Z,9.70
2023-05-21T02:15:22.565Z,10.20
2023-05-21T02:17:51.573Z,7.15
2023-05-21T02:20:19.264Z,7.15
2023-05-21T02:22:50.367Z,9.48
2023-05-21T02:25:19.812Z,8.75
2023-05-21T02:27:48.118Z,9.93
2023-05-21T02:30:16.406Z,9.75
2023-05-21T02:32:45.047Z,9.18
2023-05-21T02:35:13.395Z,9.00
2023-05-21T02:37:41.094Z,9.40
2023-05-21T02:40:10.333Z,8.45
2023-05-21T02:42:41.609Z,7.97
2023-05-21T02:45:13.645Z,8.40
2023-05-21T02:47:43.188Z,7.95
2023-05-21T02:50:10.740Z,8.07
2023-05-21T02:52:54.068Z,7.97
2023-05-21T02:55:21.495Z,8.13
2023-05-21T02:57:48.954Z,7.93
2023-05-21T03:00:16.582Z,7.47
2023-05-21T03:02:44.896Z,7.88
2023-05-21T03:05:12.429Z,7.40
2023-05-21T03:07:39.650Z,7.50
2023-05-21T03:10:07.273Z,6.82
2023-05-21T03:12:34.550Z,7.97
2023-05-21T03:15:01.796Z,8.40
2023-05-21T03:17:29.107Z,8.00
2023-05-21T03:19:56.352Z,7.72
2023-05-21T03:22:23.679Z,8.50
2023-05-21T03:24:50.918Z,7.32
2023-05-21T03:27:19.145Z,8.68
2023-05-21T03:29:47.796Z,6.80
2023-05-21T03:32:15.451Z,6.25
2023-05-21T03:34:43.722Z,8.77
2023-05-21T03:37:11.127Z,6.78
2023-05-21T03:39:38.480Z,8.48
2023-05-21T03:42:06.614Z,7.50
2023-05-21T03:45:00.735Z,7.68
2023-05-21T03:47:30.725Z,7.50
2023-05-21T03:49:59.238Z,7.63
2023-05-21T03:52:27.495Z,6.90
2023-05-21T03:54:55.054Z,8.25
2023-05-21T03:57:22.235Z,7.05
2023-05-21T03:59:49.546Z,6.75
2023-05-21T04:02:17.019Z,9.40
2023-05-21T04:04:45.640Z,8.95
2023-05-21T04:07:15.372Z,7.65
2023-05-21T04:09:42.645Z,7.93
2023-05-21T04:12:10.169Z,7.05
2023-05-21T04:14:38.087Z,6.75
2023-05-21T04:17:05.705Z,9.27
2023-05-21T04:19:33.882Z,10.38
2023-05-21T04:22:04.385Z,6.80
2023-05-21T04:24:32.000Z,6.78
2023-05-21T04:27:14.235Z,6.22
2023-05-21T04:29:44.549Z,6.88
2023-05-21T04:32:15.300Z,4.85
2023-05-21T04:34:43.059Z,4.03
2023-05-21T04:37:10.724Z,6.18
2023-05-21T04:39:38.053Z,5.95
2023-05-21T04:42:05.590Z,4.85
2023-05-21T04:44:32.869Z,5.85
2023-05-21T04:47:02.361Z,5.07
2023-05-21T04:49:30.185Z,4.32
2023-05-21T04:51:57.744Z,10.98
2023-05-21T04:54:24.947Z,12.30
2023-05-21T04:56:52.272Z,9.60
2023-05-21T04:59:20.168Z,6.18
2023-05-21T05:01:47.551Z,5.05
2023-05-21T05:04:14.693Z,6.20
2023-05-21T05:06:41.846Z,6.75
2023-05-21T05:09:09.102Z,9.07
2023-05-21T05:11:36.523Z,10.02
2023-05-21T05:14:04.404Z,9.50
2023-05-21T05:16:31.725Z,9.82
2023-05-21T05:18:59.201Z,9.20
2023-05-21T05:21:26.692Z,9.45
2023-05-21T05:23:54.299Z,8.45
2023-05-21T05:26:26.588Z,8.63
2023-05-21T05:28:53.894Z,8.75
2023-05-21T05:31:21.166Z,11.23
2023-05-21T05:33:49.028Z,11.95
2023-05-21T05:36:16.625Z,10.93
2023-05-21T05:38:43.892Z,13.10
2023-05-21T05:41:11.868Z,14.80
2023-05-21T05:43:39.548Z,14.27
2023-05-21T05:46:06.875Z,12.98
2023-05-21T05:48:34.298Z,13.40
2023-05-21T05:51:02.309Z,13.60
2023-05-21T05:53:32.485Z,12.98
2023-05-21T05:56:00.123Z,13.60
2023-05-21T05:58:30.923Z,12.25
2023-05-21T06:01:10.216Z,10.98
2023-05-21T06:03:37.479Z,11.77
2023-05-21T06:06:19.104Z,10.48
2023-05-21T06:08:46.622Z,9.18
2023-05-21T06:11:17.185Z,13.98
2023-05-21T06:13:45.812Z,12.77
2023-05-21T06:16:13.784Z,12.10
2023-05-21T06:18:41.109Z,12.75
2023-05-21T06:21:08.743Z,10.45
2023-05-21T06:23:37.781Z,11.18
2023-05-21T06:26:05.441Z,10.00
2023-05-21T06:28:32.964Z,10.27
2023-05-21T06:31:00.954Z,8.85
2023-05-21T06:33:28.455Z,8.70
2023-05-21T06:35:56.035Z,9.65
2023-05-21T06:38:23.947Z,9.13
2023-05-21T06:41:00.568Z,9.02
2023-05-21T06:43:42.958Z,8.55
2023-05-21T06:46:30.559Z,8.55
2023-05-21T06:49:01.135Z,9.27
2023-05-21T06:51:28.500Z,8.57
2023-05-21T06:53:56.347Z,8.35
2023-05-21T06:56:23.985Z,9.13
2023-05-21T06:58:54.604Z,8.45
2023-05-21T07:01:24.711Z,9.05
2023-05-21T07:03:52.409Z,8.70
2023-05-21T07:06:19.577Z,9.27
2023-05-21T07:08:48.152Z,8.73
2023-05-21T07:11:15.514Z,8.73
2023-05-21T07:13:42.718Z,9.32
2023-05-21T07:16:10.303Z,8.68
2023-05-21T07:18:39.046Z,9.32
2023-05-21T07:21:06.437Z,8.38
2023-05-21T07:23:33.669Z,8.73
2023-05-21T07:26:01.316Z,8.68
2023-05-21T07:28:28.687Z,8.40
2023-05-21T07:30:56.067Z,8.82
2023-05-21T07:33:30.941Z,8.27
2023-05-21T07:35:58.248Z,8.38
2023-05-21T07:38:26.272Z,8.43
2023-05-21T07:40:53.474Z,8.02
2023-05-21T07:43:21.455Z,8.20
2023-05-21T07:45:48.778Z,8.13
2023-05-21T07:48:16.577Z,8.35
2023-05-21T07:50:58.200Z,8.32
2023-05-21T07:53:26.136Z,8.23
2023-05-21T07:55:56.492Z,7.75
2023-05-21T07:58:27.806Z,7.18
2023-05-21T08:00:55.351Z,7.32
2023-05-21T08:03:22.960Z,6.63
2023-05-21T08:05:51.079Z,6.95
2023-05-21T08:08:19.921Z,7.32
2023-05-21T08:10:48.122Z,7.50
2023-05-21T08:13:16.964Z,6.32
2023-05-21T08:15:46.021Z,7.07
2023-05-21T08:18:13.285Z,5.68
2023-05-21T08:20:43.483Z,6.43
2023-05-21T08:23:11.817Z,6.07
2023-05-21T08:25:46.730Z,6.55
2023-05-21T08:28:14.854Z,6.07
2023-05-21T08:30:42.125Z,5.13
2023-05-21T08:33:09.662Z,5.68
2023-05-21T08:35:37.261Z,5.90
2023-05-21T08:38:24.839Z,5.75
2023-05-21T08:41:18.624Z,6.03
2023-05-21T08:43:50.010Z,5.38
2023-05-21T08:46:23.358Z,5.82
2023-05-21T08:48:56.088Z,6.15
2023-05-21T08:51:25.492Z,5.47
2023-05-21T08:53:53.489Z,5.45
2023-05-21T08:56:21.928Z,5.60
2023-05-21T08:58:54.163Z,5.70
2023-05-21T09:01:25.736Z,5.70
2023-05-21T09:04:19.038Z,5.70
2023-05-21T09:06:48.051Z,6.20
2023-05-21T09:09:36.784Z,5.85
2023-05-21T09:12:04.431Z,5.53
2023-05-21T09:14:32.960Z,5.72
2023-05-21T09:17:20.633Z,6.20
2023-05-21T09:20:17.193Z,5.90
2023-05-21T09:22:51.584Z,5.80
2023-05-21T09:25:28.399Z,6.13
2023-05-21T09:28:01.684Z,5.88
2023-05-21T09:30:31.274Z,5.63
2023-05-21T09:33:01.845Z,5.63
2023-05-21T09:35:29.803Z,5.38
2023-05-21T09:37:57.839Z,5.53
2023-05-21T09:40:25.516Z,5.90
2023-05-21T09:42:55.729Z,5.43
2023-05-21T09:45:28.108Z,6.25
2023-05-21T09:47:58.455Z,5.45
2023-05-21T09:50:28.959Z,6.07
2023-05-21T09:52:56.477Z,5.80
2023-05-21T09:55:24.737Z,6.30
2023-05-21T09:57:52.718Z,5.82
2023-05-21T10:00:21.415Z,5.70
2023-05-21T10:02:56.886Z,5.40
2023-05-21T10:05:29.465Z,5.40
2023-05-21T10:08:04.559Z,5.40
2023-05-21T10:10:33.079Z,5.65
2023-05-21T10:13:12.692Z,4.93
2023-05-21T10:15:44.338Z,5.50
2023-05-21T10:18:14.114Z,4.85
2023-05-21T10:20:42.835Z,5.38
2023-05-21T10:23:10.630Z,5.55
2023-05-21T10:25:38.207Z,4.95
2023-05-21T10:28:07.211Z,6.00
2023-05-21T10:30:40.202Z,5.25
2023-05-21T10:33:07.939Z,4.95
2023-05-21T10:35:37.271Z,4.90
2023-05-21T10:38:06.744Z,4.95
2023-05-21T10:40:36.405Z,5.28
2023-05-21T10:43:13.883Z,5.03
2023-05-21T10:45:59.117Z,5.38
2023-05-21T10:48:38.951Z,5.10
2023-05-21T10:51:06.630Z,5.35
2023-05-21T10:54:24.594Z,5.30
2023-05-21T10:57:03.852Z,5.43
2023-05-21T10:59:46.998Z,5.07
2023-05-21T11:02:17.914Z,4.93
2023-05-21T11:04:46.138Z,4.53
2023-05-21T11:07:15.083Z,5.10
2023-05-21T11:09:42.268Z,4.72
2023-05-21T11:14:43.008Z,5.28
2023-05-21T11:17:10.335Z,4.50
2023-05-21T11:19:39.823Z,5.38
2023-05-21T11:22:08.835Z,4.80
2023-05-21T11:24:41.428Z,5.18
2023-05-21T11:27:09.781Z,4.82
2023-05-21T11:29:42.149Z,5.13
2023-05-21T11:32:12.326Z,5.25
2023-05-21T11:34:40.548Z,4.68
2023-05-21T11:37:17.341Z,4.80
2023-05-21T11:39:45.571Z,5.10
2023-05-21T11:42:13.217Z,5.60
2023-05-21T11:44:48.540Z,5.28
2023-05-21T11:47:21.227Z,4.55
2023-05-21T11:49:49.689Z,5.38
2023-05-21T11:52:16.860Z,4.97
2023-05-21T11:54:51.433Z,5.10
2023-05-21T11:57:52.548Z,4.90
2023-05-21T12:00:24.127Z,4.95
2023-05-21T12:03:07.726Z,5.47
2023-05-21T12:06:02.099Z,5.03
2023-05-21T12:11:36.788Z,5.03
2023-05-21T12:14:20.944Z,5.18
2023-05-21T12:16:56.129Z,4.57
2023-05-21T12:19:40.036Z,5.90
2023-05-21T12:22:20.937Z,4.93
2023-05-21T12:25:16.222Z,5.63
2023-05-21T12:27:51.428Z,5.20
2023-05-21T12:30:35.810Z,5.15
2023-05-21T12:33:28.504Z,5.13
2023-05-21T12:36:08.486Z,5.65
2023-05-21T12:38:50.079Z,5.35
2023-05-21T12:41:43.958Z,5.40
2023-05-21T12:44:20.944Z,5.57
2023-05-21T12:46:54.687Z,5.45
2023-05-21T12:49:50.222Z,5.20
2023-05-21T12:52:23.661Z,5.07
2023-05-21T12:55:00.439Z,5.40
2023-05-21T12:57:49.149Z,5.18
2023-05-21T13:00:29.267Z,5.25
2023-05-21T13:03:05.877Z,5.13
2023-05-21T13:05:50.389Z,5.10
2023-05-21T13:08:23.584Z,5.03
2023-05-21T13:13:38.175Z,5.30
2023-05-21T13:16:17.352Z,5.60
2023-05-21T13:18:52.436Z,5.15
2023-05-21T13:21:34.574Z,5.43
2023-05-21T13:24:08.504Z,5.35
2023-05-21T13:26:44.669Z,5.07
2023-05-21T13:29:28.008Z,5.68
2023-05-21T13:32:11.380Z,5.07
2023-05-21T13:35:14.275Z,5.22
2023-05-21T13:37:56.211Z,5.15
2023-05-21T13:40:41.209Z,5.35
2023-05-21T13:43:19.805Z,4.60
2023-05-21T13:46:18.506Z,4.97
2023-05-21T13:48:54.296Z,5.13
2023-05-21T13:52:02.241Z,5.00
2023-05-21T13:54:37.792Z,4.88
2023-05-21T13:57:23.782Z,5.00
2023-05-21T14:00:12.835Z,5.05
2023-05-21T14:03:02.941Z,4.60
2023-05-21T14:05:56.361Z,4.70
2023-05-21T14:08:29.895Z,5.05
2023-05-21T14:11:06.549Z,4.85
2023-05-21T14:16:46.218Z,4.97
2023-05-21T14:19:29.110Z,4.97
2023-05-21T14:25:07.781Z,4.55
2023-05-21T14:27:43.080Z,4.72
2023-05-21T14:30:19.066Z,4.53
2023-05-21T14:36:07.441Z,4.55
2023-05-21T14:38:54.685Z,4.60
2023-05-21T14:41:30.356Z,4.82
2023-05-21T14:44:25.938Z,4.95
2023-05-21T14:47:15.857Z,5.15
2023-05-21T14:49:50.846Z,5.30
2023-05-21T14:52:54.100Z,4.53
2023-05-21T14:55:50.763Z,5.00
2023-05-21T14:58:24.722Z,4.65
2023-05-21T15:01:15.689Z,4.68
2023-05-21T15:04:00.737Z,4.93
2023-05-21T15:06:38.609Z,4.50
2023-05-21T15:09:16.165Z,4.68
2023-05-21T15:12:08.085Z,5.03
2023-05-21T15:14:49.371Z,5.43
2023-05-21T15:17:31.495Z,4.75
2023-05-21T15:20:14.039Z,4.93
2023-05-21T15:22:50.085Z,4.32
2023-05-21T15:25:44.917Z,4.57
2023-05-21T15:28:30.064Z,4.80
2023-05-21T15:31:25.667Z,4.78
2023-05-21T15:36:40.669Z,4.82
2023-05-21T15:39:18.775Z,4.90
2023-05-21T15:41:56.295Z,4.85
2023-05-21T15:44:37.100Z,5.22
2023-05-21T15:47:09.002Z,5.57
2023-05-21T15:49:36.755Z,4.93
2023-05-21T15:52:04.387Z,5.45
2023-05-21T15:54:32.006Z,5.78
2023-05-21T15:56:59.696Z,5.50
2023-05-21T15:59:28.033Z,5.90
2023-05-21T16:01:56.665Z,5.40
2023-05-21T16:04:24.486Z,5.20
2023-05-21T16:06:51.978Z,5.05
2023-05-21T16:09:19.648Z,5.65
2023-05-21T16:11:49.165Z,5.47
2023-05-21T16:14:16.859Z,5.53
2023-05-21T16:16:45.064Z,5.55
2023-05-21T16:19:13.106Z,5.72
2023-05-21T16:21:40.821Z,5.18
2023-05-21T16:24:08.657Z,5.90
2023-05-21T16:26:36.575Z,5.38
2023-05-21T16:29:04.185Z,5.18
2023-05-21T16:31:33.437Z,5.10
2023-05-21T16:34:01.311Z,5.50
2023-05-21T16:36:29.355Z,4.70
2023-05-21T16:38:57.217Z,5.07
2023-05-21T16:41:25.134Z,4.50
2023-05-21T16:43:55.083Z,5.20
2023-05-21T16:46:23.057Z,5.18
2023-05-21T16:48:51.416Z,5.30
2023-05-21T16:51:19.222Z,5.55
2023-05-21T16:53:47.528Z,5.30
2023-05-21T16:56:15.607Z,5.40
2023-05-21T16:58:43.637Z,5.55
2023-05-21T17:01:12.714Z,5.07
2023-05-21T17:03:43.190Z,5.20
2023-05-21T17:06:11.651Z,5.30
2023-05-21T17:08:39.659Z,5.22
2023-05-21T17:11:07.947Z,4.80
2023-05-21T17:13:35.772Z,5.50
2023-05-21T17:16:03.988Z,4.97
2023-05-21T17:18:32.104Z,5.35
2023-05-21T17:21:00.243Z,5.20
2023-05-21T17:23:28.220Z,5.43
2023-05-21T17:25:56.392Z,5.65
2023-05-21T17:28:24.655Z,5.90
2023-05-21T17:30:52.790Z,5.47
2023-05-21T17:33:20.915Z,5.05
2023-05-21T17:35:48.888Z,5.35
2023-05-21T17:38:16.833Z,5.55
2023-05-21T17:40:44.906Z,5.82
2023-05-21T17:43:12.840Z,5.55
2023-05-21T17:45:41.315Z,5.85
2023-05-21T17:48:09.383Z,5.15
2023-05-21T17:50:37.560Z,5.72
2023-05-21T17:53:05.549Z,5.60
2023-05-21T17:55:33.551Z,5.53
2023-05-21T17:58:01.533Z,5.25
2023-05-21T18:00:29.507Z,5.82
2023-05-21T18:02:57.708Z,5.88
2023-05-21T18:05:26.053Z,5.45
2023-05-21T18:07:54.306Z,5.15
2023-05-21T18:10:22.633Z,5.63
2023-05-21T18:12:50.726Z,5.25
2023-05-21T18:15:18.984Z,5.22
2023-05-21T18:17:48.572Z,5.53
2023-05-21T18:20:16.965Z,5.85
2023-05-21T18:22:45.982Z,5.32
2023-05-21T18:25:14.268Z,6.30
2023-05-21T18:27:42.591Z,6.10
2023-05-21T18:30:11.327Z,6.15
2023-05-21T18:32:39.618Z,5.97
2023-05-21T18:35:12.519Z,5.85
2023-05-21T18:37:45.256Z,6.10
2023-05-21T18:40:14.615Z,5.82
2023-05-21T18:42:43.222Z,5.65
2023-05-21T18:45:12.335Z,6.32
2023-05-21T18:47:43.237Z,6.10
2023-05-21T18:50:14.354Z,6.10
2023-05-21T18:52:42.917Z,6.95
2023-05-21T18:55:11.542Z,6.95
2023-05-21T18:57:40.778Z,6.75
2023-05-21T19:00:11.184Z,6.50
2023-05-21T19:02:40.916Z,6.50
2023-05-21T19:05:09.514Z,7.50
2023-05-21T19:07:37.520Z,11.63
2023-05-21T19:10:06.201Z,9.98
2023-05-21T19:12:36.624Z,8.18
2023-05-21T19:15:05.729Z,7.20
2023-05-21T19:17:36.999Z,6.85
2023-05-21T19:20:06.243Z,7.22
2023-05-21T19:22:34.998Z,8.77
2023-05-21T19:25:03.332Z,7.85
2023-05-21T19:27:31.748Z,7.90
2023-05-21T19:29:59.857Z,6.97
2023-05-21T19:32:28.388Z,10.05
2023-05-21T19:34:58.388Z,9.65
2023-05-21T19:37:27.023Z,8.43
2023-05-21T19:39:56.731Z,8.15
2023-05-21T19:42:24.923Z,7.85
2023-05-21T19:44:56.138Z,7.25
2023-05-21T19:47:25.452Z,8.20
2023-05-21T19:49:53.532Z,7.63
2023-05-21T19:52:21.596Z,8.82
2023-05-21T19:54:49.932Z,10.57
2023-05-21T19:57:18.145Z,8.95
2023-05-21T19:59:46.542Z,7.65
2023-05-21T20:02:16.752Z,8.43
2023-05-21T20:04:45.068Z,7.13
2023-05-21T20:07:13.563Z,8.55
2023-05-21T20:09:43.619Z,8.77
2023-05-21T20:12:11.914Z,6.28
2023-05-21T20:14:39.917Z,7.03
2023-05-21T20:17:08.185Z,6.55
2023-05-21T20:19:36.643Z,6.90
2023-05-21T20:22:04.975Z,6.07
2023-05-21T20:24:33.141Z,6.63
2023-05-21T20:27:02.226Z,6.95
2023-05-21T20:29:30.352Z,7.95
2023-05-21T20:31:58.689Z,6.82
2023-05-21T20:34:28.060Z,7.10
2023-05-21T20:36:58.937Z,7.30
2023-05-21T20:39:30.451Z,6.50
2023-05-21T20:41:59.377Z,6.70
2023-05-21T20:44:28.190Z,6.72
2023-05-21T20:46:56.229Z,6.93
2023-05-21T20:49:25.498Z,6.18
2023-05-21T20:51:53.714Z,7.35
2023-05-21T20:54:22.791Z,7.15
2023-05-21T20:56:51.262Z,6.65
2023-05-21T20:59:19.188Z,7.07
2023-05-21T21:01:46.916Z,6.63
2023-05-21T21:04:14.456Z,6.68
2023-05-21T21:06:42.135Z,7.00
2023-05-21T21:09:09.439Z,7.00
2023-05-21T21:11:37.080Z,6.88
2023-05-21T21:14:04.342Z,7.75
2023-05-21T21:16:32.752Z,7.20
2023-05-21T21:19:00.014Z,6.38
2023-05-21T21:21:28.404Z,6.70
2023-05-21T21:23:55.655Z,6.70
2023-05-21T21:26:23.092Z,6.75
2023-05-21T21:28:52.621Z,7.47
2023-05-21T21:31:20.084Z,7.00
2023-05-21T21:33:47.316Z,6.47
2023-05-21T21:36:14.777Z,7.03
2023-05-21T21:38:41.973Z,6.18
2023-05-21T21:41:09.408Z,7.50
2023-05-21T21:43:37.075Z,7.05
2023-05-21T21:46:04.674Z,7.03
2023-05-21T21:48:32.166Z,7.38
2023-05-21T21:51:00.143Z,7.10
2023-05-21T21:53:27.298Z,6.68
2023-05-21T21:55:56.015Z,7.10
2023-05-21T21:58:23.277Z,7.20
2023-05-21T22:00:50.774Z,7.47
2023-05-21T22:03:18.723Z,7.25
2023-05-21T22:05:46.420Z,7.50
2023-05-21T22:08:13.625Z,7.68
2023-05-21T22:10:41.450Z,7.03
2023-05-21T22:13:09.018Z,8.13
2023-05-21T22:15:36.516Z,7.50
2023-05-21T22:18:04.325Z,7.25
2023-05-21T22:20:33.225Z,7.68
2023-05-21T22:23:00.847Z,7.38
2023-05-21T22:25:28.263Z,8.38
2023-05-21T22:27:55.589Z,7.40
2023-05-21T22:30:22.915Z,7.05
2023-05-21T22:32:50.303Z,8.07
2023-05-21T22:35:19.362Z,7.88
2023-05-21T22:37:47.011Z,7.70
2023-05-21T22:40:14.803Z,7.22
2023-05-21T22:42:42.474Z,7.75
2023-05-21T22:45:11.193Z,7.80
2023-05-21T22:47:39.809Z,7.47
2023-05-21T22:50:08.293Z,8.13
2023-05-21T22:52:36.252Z,7.70
2023-05-21T22:55:04.052Z,7.45
2023-05-21T22:57:32.143Z,7.45
2023-05-21T22:59:59.430Z,8.18
2023-05-21T23:02:27.012Z,8.40
2023-05-21T23:04:54.490Z,6.88
2023-05-21T23:07:21.702Z,7.68
2023-05-21T23:09:51.759Z,8.18
2023-05-21T23:12:19.203Z,7.63
2023-05-21T23:14:47.329Z,7.70
2023-05-21T23:17:15.557Z,7.47
2023-05-21T23:19:42.868Z,8.73
2023-05-21T23:22:10.198Z,7.45
2023-05-21T23:24:39.085Z,7.75
2023-05-21T23:27:06.750Z,8.23
2023-05-21T23:29:34.327Z,9.00
2023-05-21T23:32:01.982Z,8.63
2023-05-21T23:34:29.497Z,8.10
2023-05-21T23:36:59.399Z,8.20
2023-05-21T23:39:28.817Z,7.82
2023-05-21T23:41:56.108Z,7.85
2023-05-21T23:44:23.577Z,8.32
2023-05-21T23:46:51.426Z,7.70
2023-05-21T23:49:18.928Z,8.02
2023-05-21T23:51:46.966Z,7.80
2023-05-21T23:54:15.336Z,7.22
2023-05-21T23:56:43.723Z,7.72
2023-05-21T23:59:11.342Z,8.25
